sensor_id;sensor_type;location;lat;lon;timestamp;P1;durP1;ratioP1;P2;durP2;ratioP2
10335;SDS011;5213;53.548;9.930;2023-04-01T00:00:04;6.72;;;5.43;;
10335;SDS011;5213;53.548;9.930;2023-04-01T00:02:30;6.20;;;5.30;;
10335;SDS011;5213;53.548;9.930;2023-04-01T00:04:56;7.60;;;5.55;;
10335;SDS011;5213;53.548;9.930;2023-04-01T00:07:22;8.45;;;5.30;;
10335;SDS011;5213;53.548;9.930;2023-04-01T00:09:48;8.25;;;5.63;;
10335;SDS011;5213;53.548;9.930;2023-04-01T00:12:14;8.50;;;5.47;;
10335;SDS011;5213;53.548;9.930;2023-04-01T00:14:40;8.18;;;5.22;;
10335;SDS011;5213;53.548;9.930;2023-04-01T00:17:06;7.68;;;5.40;;
10335;SDS011;5213;53.548;9.930;2023-04-01T00:19:32;8.68;;;5.28;;
10335;SDS011;5213;53.548;9.930;2023-04-01T00:21:58;8.07;;;5.45;;
10335;SDS011;5213;53.548;9.930;2023-04-01T00:24:25;8.55;;;5.95;;
10335;SDS011;5213;53.548;9.930;2023-04-01T00:26:51;7.05;;;5.45;;
10335;SDS011;5213;53.548;9.930;2023-04-01T00:29:17;7.68;;;5.47;;
10335;SDS011;5213;53.548;9.930;2023-04-01T00:31:43;6.72;;;5.20;;
10335;SDS011;5213;53.548;9.930;2023-04-01T00:34:09;8.30;;;5.60;;
10335;SDS011;5213;53.548;9.930;2023-04-01T00:36:35;6.40;;;5.07;;
10335;SDS011;5213;53.548;9.930;2023-04-01T00:39:01;8.50;;;5.07;;
10335;SDS011;5213;53.548;9.930;2023-04-01T00:41:27;10.50;;;5.68;;
10335;SDS011;5213;53.548;9.930;2023-04-01T00:44:11;6.43;;;5.28;;
10335;SDS011;5213;53.548;9.930;2023-04-01T00:46:39;8.73;;;5.72;;
10335;SDS011;5213;53.548;9.930;2023-04-01T00:49:05;8.63;;;5.55;;
10335;SDS011;5213;53.548;9.930;2023-04-01T00:51:31;7.97;;;5.50;;
10335;SDS011;5213;53.548;9.930;2023-04-01T00:54:00;8.93;;;5.35;;
10335;SDS011;5213;53.548;9.930;2023-04-01T00:56:35;9.48;;;6.28;;
10335;SDS011;5213;53.548;9.930;2023-04-01T00:59:04;7.78;;;5.50;;
10335;SDS011;5213;53.548;9.930;2023-04-01T01:01:33;9.05;;;5.38;;
10335;SDS011;5213;53.548;9.930;2023-04-01T01:04:00;6.20;;;5.15;;
10335;SDS011;5213;53.548;9.930;2023-04-01T01:09:28;7.57;;;5.60;;
10335;SDS011;5213;53.548;9.930;2023-04-01T01:12:11;9.13;;;6.00;;
10335;SDS011;5213;53.548;9.930;2023-04-01T01:17:18;7.82;;;5.53;;
10335;SDS011;5213;53.548;9.930;2023-04-01T01:19:49;8.13;;;5.00;;
10335;SDS011;5213;53.548;9.930;2023-04-01T01:22:27;7.35;;;5.47;;
10335;SDS011;5213;53.548;9.930;2023-04-01T01:25:02;10.35;;;5.07;;
10335;SDS011;5213;53.548;9.930;2023-04-01T01:27:36;8.50;;;5.60;;
10335;SDS011;5213;53.548;9.930;2023-04-01T01:35:30;8.73;;;5.30;;
10335;SDS011;5213;53.548;9.930;2023-04-01T01:38:18;7.30;;;4.95;;
10335;SDS011;5213;53.548;9.930;2023-04-01T01:40:46;6.65;;;5.03;;
10335;SDS011;5213;53.548;9.930;2023-04-01T01:43:14;7.57;;;4.88;;
10335;SDS011;5213;53.548;9.930;2023-04-01T01:45:46;7.72;;;4.95;;
10335;SDS011;5213;53.548;9.930;2023-04-01T01:48:13;7.43;;;4.50;;
10335;SDS011;5213;53.548;9.930;2023-04-01T01:50:40;8.00;;;4.68;;
10335;SDS011;5213;53.548;9.930;2023-04-01T01:53:08;8.70;;;4.90;;
10335;SDS011;5213;53.548;9.930;2023-04-01T01:55:36;6.38;;;4.88;;
10335;SDS011;5213;53.548;9.930;2023-04-01T02:01:01;7.28;;;5.00;;
10335;SDS011;5213;53.548;9.930;2023-04-01T02:03:29;8.10;;;4.57;;
10335;SDS011;5213;53.548;9.930;2023-04-01T02:05:58;8.07;;;5.22;;
10335;SDS011;5213;53.548;9.930;2023-04-01T02:08:30;7.95;;;5.10;;
10335;SDS011;5213;53.548;9.930;2023-04-01T02:11:02;7.88;;;4.60;;
10335;SDS011;5213;53.548;9.930;2023-04-01T02:13:29;6.30;;;5.13;;
10335;SDS011;5213;53.548;9.930;2023-04-01T02:15:58;6.60;;;5.53;;
10335;SDS011;5213;53.548;9.930;2023-04-01T02:18:25;8.00;;;5.68;;
10335;SDS011;5213;53.548;9.930;2023-04-01T02:20:53;6.78;;;4.93;;
10335;SDS011;5213;53.548;9.930;2023-04-01T02:23:20;7.38;;;5.30;;
10335;SDS011;5213;53.548;9.930;2023-04-01T02:25:47;7.78;;;5.80;;
10335;SDS011;5213;53.548;9.930;2023-04-01T02:28:13;7.32;;;5.80;;
10335;SDS011;5213;53.548;9.930;2023-04-01T02:30:41;9.85;;;6.63;;
10335;SDS011;5213;53.548;9.930;2023-04-01T02:33:09;6.50;;;5.70;;
10335;SDS011;5213;53.548;9.930;2023-04-01T02:35:35;9.20;;;6.10;;
10335;SDS011;5213;53.548;9.930;2023-04-01T02:38:02;9.90;;;5.90;;
10335;SDS011;5213;53.548;9.930;2023-04-01T02:40:28;9.50;;;5.95;;
10335;SDS011;5213;53.548;9.930;2023-04-01T02:42:55;8.65;;;5.55;;
10335;SDS011;5213;53.548;9.930;2023-04-01T02:45:21;7.57;;;5.45;;
10335;SDS011;5213;53.548;9.930;2023-04-01T02:47:47;7.30;;;5.63;;
10335;SDS011;5213;53.548;9.930;2023-04-01T02:50:13;6.90;;;5.50;;
10335;SDS011;5213;53.548;9.930;2023-04-01T02:52:39;8.02;;;5.63;;
10335;SDS011;5213;53.548;9.930;2023-04-01T02:55:05;7.63;;;5.57;;
10335;SDS011;5213;53.548;9.930;2023-04-01T02:57:31;10.20;;;5.80;;
10335;SDS011;5213;53.548;9.930;2023-04-01T02:59:58;7.10;;;5.93;;
10335;SDS011;5213;53.548;9.930;2023-04-01T03:02:24;9.98;;;6.28;;
10335;SDS011;5213;53.548;9.930;2023-04-01T03:04:50;8.40;;;5.93;;
10335;SDS011;5213;53.548;9.930;2023-04-01T03:07:16;8.68;;;6.32;;
10335;SDS011;5213;53.548;9.930;2023-04-01T03:09:42;8.35;;;6.18;;
10335;SDS011;5213;53.548;9.930;2023-04-01T03:12:08;9.50;;;6.18;;
10335;SDS011;5213;53.548;9.930;2023-04-01T03:14:34;9.15;;;6.25;;
10335;SDS011;5213;53.548;9.930;2023-04-01T03:17:00;7.15;;;5.97;;
10335;SDS011;5213;53.548;9.930;2023-04-01T03:19:26;7.72;;;6.00;;
10335;SDS011;5213;53.548;9.930;2023-04-01T03:21:52;9.07;;;5.95;;
10335;SDS011;5213;53.548;9.930;2023-04-01T03:24:18;7.85;;;6.13;;
10335;SDS011;5213;53.548;9.930;2023-04-01T03:26:44;8.07;;;6.35;;
10335;SDS011;5213;53.548;9.930;2023-04-01T03:29:10;9.10;;;6.43;;
10335;SDS011;5213;53.548;9.930;2023-04-01T03:31:36;6.60;;;5.90;;
10335;SDS011;5213;53.548;9.930;2023-04-01T03:34:02;9.73;;;6.32;;
10335;SDS011;5213;53.548;9.930;2023-04-01T03:36:28;7.55;;;5.85;;
10335;SDS011;5213;53.548;9.930;2023-04-01T03:38:54;7.88;;;5.88;;
10335;SDS011;5213;53.548;9.930;2023-04-01T03:41:20;9.27;;;6.63;;
10335;SDS011;5213;53.548;9.930;2023-04-01T03:43:46;9.13;;;6.50;;
10335;SDS011;5213;53.548;9.930;2023-04-01T03:46:16;8.30;;;6.32;;
10335;SDS011;5213;53.548;9.930;2023-04-01T03:48:42;10.23;;;6.90;;
10335;SDS011;5213;53.548;9.930;2023-04-01T03:51:08;7.78;;;6.40;;
10335;SDS011;5213;53.548;9.930;2023-04-01T03:53:34;8.80;;;6.03;;
10335;SDS011;5213;53.548;9.930;2023-04-01T03:56:07;8.27;;;6.38;;
10335;SDS011;5213;53.548;9.930;2023-04-01T03:58:34;10.23;;;6.40;;
10335;SDS011;5213;53.548;9.930;2023-04-01T04:01:00;10.45;;;6.10;;
10335;SDS011;5213;53.548;9.930;2023-04-01T04:03:26;9.60;;;5.85;;
10335;SDS011;5213;53.548;9.930;2023-04-01T04:05:53;9.90;;;5.97;;
10335;SDS011;5213;53.548;9.930;2023-04-01T04:08:20;6.90;;;5.97;;
10335;SDS011;5213;53.548;9.930;2023-04-01T04:10:46;8.10;;;6.20;;
10335;SDS011;5213;53.548;9.930;2023-04-01T04:13:13;9.55;;;6.50;;
10335;SDS011;5213;53.548;9.930;2023-04-01T04:15:39;8.00;;;5.97;;
10335;SDS011;5213;53.548;9.930;2023-04-01T04:18:05;8.95;;;6.07;;
10335;SDS011;5213;53.548;9.930;2023-04-01T04:20:31;9.85;;;6.95;;
10335;SDS011;5213;53.548;9.930;2023-04-01T04:22:57;8.07;;;6.28;;
10335;SDS011;5213;53.548;9.930;2023-04-01T04:25:23;8.80;;;7.20;;
10335;SDS011;5213;53.548;9.930;2023-04-01T04:27:49;8.40;;;6.82;;
10335;SDS011;5213;53.548;9.930;2023-04-01T04:30:15;7.57;;;6.75;;
10335;SDS011;5213;53.548;9.930;2023-04-01T04:32:41;9.10;;;6.75;;
10335;SDS011;5213;53.548;9.930;2023-04-01T04:35:07;8.13;;;6.85;;
10335;SDS011;5213;53.548;9.930;2023-04-01T04:37:34;9.45;;;6.82;;
10335;SDS011;5213;53.548;9.930;2023-04-01T04:40:00;9.40;;;6.80;;
10335;SDS011;5213;53.548;9.930;2023-04-01T04:42:26;9.85;;;6.90;;
10335;SDS011;5213;53.548;9.930;2023-04-01T04:44:52;8.02;;;6.55;;
10335;SDS011;5213;53.548;9.930;2023-04-01T04:47:18;9.38;;;6.80;;
10335;SDS011;5213;53.548;9.930;2023-04-01T04:49:45;10.35;;;6.82;;
10335;SDS011;5213;53.548;9.930;2023-04-01T04:52:11;9.30;;;6.20;;
10335;SDS011;5213;53.548;9.930;2023-04-01T04:54:37;9.15;;;6.70;;
10335;SDS011;5213;53.548;9.930;2023-04-01T04:57:03;9.40;;;6.70;;
10335;SDS011;5213;53.548;9.930;2023-04-01T04:59:30;9.13;;;6.65;;
10335;SDS011;5213;53.548;9.930;2023-04-01T05:01:56;8.88;;;7.10;;
10335;SDS011;5213;53.548;9.930;2023-04-01T05:04:22;7.38;;;6.68;;
10335;SDS011;5213;53.548;9.930;2023-04-01T05:06:48;9.88;;;7.43;;
10335;SDS011;5213;53.548;9.930;2023-04-01T05:09:14;8.27;;;7.28;;
10335;SDS011;5213;53.548;9.930;2023-04-01T05:11:40;9.60;;;7.25;;
10335;SDS011;5213;53.548;9.930;2023-04-01T05:14:11;12.63;;;8.27;;
10335;SDS011;5213;53.548;9.930;2023-04-01T05:16:37;12.18;;;8.93;;
10335;SDS011;5213;53.548;9.930;2023-04-01T05:19:03;10.45;;;7.95;;
10335;SDS011;5213;53.548;9.930;2023-04-01T05:21:29;12.40;;;8.32;;
10335;SDS011;5213;53.548;9.930;2023-04-01T05:23:55;10.98;;;7.60;;
10335;SDS011;5213;53.548;9.930;2023-04-01T05:26:21;9.02;;;7.75;;
10335;SDS011;5213;53.548;9.930;2023-04-01T05:28:47;9.93;;;7.90;;
10335;SDS011;5213;53.548;9.930;2023-04-01T05:31:13;9.95;;;7.82;;
10335;SDS011;5213;53.548;9.930;2023-04-01T05:33:39;10.27;;;8.73;;
10335;SDS011;5213;53.548;9.930;2023-04-01T05:36:09;8.75;;;7.65;;
10335;SDS011;5213;53.548;9.930;2023-04-01T05:38:36;9.20;;;7.60;;
10335;SDS011;5213;53.548;9.930;2023-04-01T05:41:02;9.05;;;7.55;;
10335;SDS011;5213;53.548;9.930;2023-04-01T05:43:28;10.48;;;8.07;;
10335;SDS011;5213;53.548;9.930;2023-04-01T05:45:55;4.50;;;4.10;;
10335;SDS011;5213;53.548;9.930;2023-04-01T05:48:21;2.65;;;2.45;;
10335;SDS011;5213;53.548;9.930;2023-04-01T05:50:47;1.70;;;1.60;;
10335;SDS011;5213;53.548;9.930;2023-04-01T05:53:13;1.80;;;1.70;;
10335;SDS011;5213;53.548;9.930;2023-04-01T05:55:39;1.20;;;1.20;;
10335;SDS011;5213;53.548;9.930;2023-04-01T05:58:05;1.48;;;1.38;;
10335;SDS011;5213;53.548;9.930;2023-04-01T06:00:31;1.67;;;1.58;;
10335;SDS011;5213;53.548;9.930;2023-04-01T06:03:00;1.30;;;1.30;;
10335;SDS011;5213;53.548;9.930;2023-04-01T06:05:38;1.30;;;1.30;;
10335;SDS011;5213;53.548;9.930;2023-04-01T06:08:14;2.75;;;1.60;;
10335;SDS011;5213;53.548;9.930;2023-04-01T06:13:12;2.25;;;1.70;;
10335;SDS011;5213;53.548;9.930;2023-04-01T06:15:51;2.08;;;1.67;;
10335;SDS011;5213;53.548;9.930;2023-04-01T06:20:58;2.00;;;1.90;;
10335;SDS011;5213;53.548;9.930;2023-04-01T06:23:46;2.03;;;1.90;;
10335;SDS011;5213;53.548;9.930;2023-04-01T06:26:21;1.80;;;1.70;;
10335;SDS011;5213;53.548;9.930;2023-04-01T06:28:59;2.55;;;1.98;;
10335;SDS011;5213;53.548;9.930;2023-04-01T06:44:09;1.20;;;1.20;;
10335;SDS011;5213;53.548;9.930;2023-04-01T06:49:20;1.42;;;1.33;;
10335;SDS011;5213;53.548;9.930;2023-04-01T06:54:21;1.10;;;1.10;;
10335;SDS011;5213;53.548;9.930;2023-04-01T06:56:52;1.20;;;1.20;;
10335;SDS011;5213;53.548;9.930;2023-04-01T06:59:30;1.20;;;1.20;;
10335;SDS011;5213;53.548;9.930;2023-04-01T07:02:20;1.80;;;1.30;;
10335;SDS011;5213;53.548;9.930;2023-04-01T07:04:44;1.20;;;1.20;;
10335;SDS011;5213;53.548;9.930;2023-04-01T07:10:20;1.30;;;1.20;;
10335;SDS011;5213;53.548;9.930;2023-04-01T07:12:53;1.40;;;1.40;;
10335;SDS011;5213;53.548;9.930;2023-04-01T07:17:47;1.55;;;1.20;;
10335;SDS011;5213;53.548;9.930;2023-04-01T07:20:36;1.63;;;1.30;;
10335;SDS011;5213;53.548;9.930;2023-04-01T07:23:23;1.10;;;1.10;;
10335;SDS011;5213;53.548;9.930;2023-04-01T07:25:51;1.00;;;1.00;;
10335;SDS011;5213;53.548;9.930;2023-04-01T07:28:17;1.67;;;1.02;;
10335;SDS011;5213;53.548;9.930;2023-04-01T07:33:53;1.00;;;1.00;;
10335;SDS011;5213;53.548;9.930;2023-04-01T07:44:01;1.13;;;1.13;;
10335;SDS011;5213;53.548;9.930;2023-04-01T07:46:47;1.20;;;1.20;;
10335;SDS011;5213;53.548;9.930;2023-04-01T07:49:17;1.00;;;1.00;;
10335;SDS011;5213;53.548;9.930;2023-04-01T07:54:44;1.10;;;1.10;;
10335;SDS011;5213;53.548;9.930;2023-04-01T08:00:21;1.33;;;1.15;;
10335;SDS011;5213;53.548;9.930;2023-04-01T08:02:47;1.30;;;1.30;;
10335;SDS011;5213;53.548;9.930;2023-04-01T08:07:49;1.00;;;1.00;;
10335;SDS011;5213;53.548;9.930;2023-04-01T08:10:32;0.90;;;0.90;;
10335;SDS011;5213;53.548;9.930;2023-04-01T08:18:17;0.82;;;0.82;;
10335;SDS011;5213;53.548;9.930;2023-04-01T08:25:49;1.00;;;1.00;;
10335;SDS011;5213;53.548;9.930;2023-04-01T08:28:24;1.00;;;1.00;;
10335;SDS011;5213;53.548;9.930;2023-04-01T08:30:53;0.95;;;0.95;;
10335;SDS011;5213;53.548;9.930;2023-04-01T08:33:23;2.42;;;0.93;;
10335;SDS011;5213;53.548;9.930;2023-04-01T08:35:51;1.13;;;1.02;;
10335;SDS011;5213;53.548;9.930;2023-04-01T08:38:20;0.98;;;0.98;;
10335;SDS011;5213;53.548;9.930;2023-04-01T08:40:55;0.93;;;0.93;;
10335;SDS011;5213;53.548;9.930;2023-04-01T08:45:55;0.80;;;0.80;;
10335;SDS011;5213;53.548;9.930;2023-04-01T09:06:45;1.02;;;0.93;;
10335;SDS011;5213;53.548;9.930;2023-04-01T09:14:45;1.58;;;1.02;;
10335;SDS011;5213;53.548;9.930;2023-04-01T09:28:07;1.25;;;1.25;;
10335;SDS011;5213;53.548;9.930;2023-04-01T09:30:49;0.82;;;0.82;;
10335;SDS011;5213;53.548;9.930;2023-04-01T09:38:32;1.00;;;1.00;;
10335;SDS011;5213;53.548;9.930;2023-04-01T09:43:50;1.10;;;1.10;;
10335;SDS011;5213;53.548;9.930;2023-04-01T09:46:26;1.00;;;1.00;;
10335;SDS011;5213;53.548;9.930;2023-04-01T10:12:30;0.90;;;0.90;;
10335;SDS011;5213;53.548;9.930;2023-04-01T10:15:09;0.90;;;0.90;;
10335;SDS011;5213;53.548;9.930;2023-04-01T10:20:11;0.88;;;0.88;;
10335;SDS011;5213;53.548;9.930;2023-04-01T10:36:43;0.90;;;0.90;;
10335;SDS011;5213;53.548;9.930;2023-04-01T11:11:34;1.30;;;1.20;;
10335;SDS011;5213;53.548;9.930;2023-04-01T11:24:25;1.40;;;1.27;;
10335;SDS011;5213;53.548;9.930;2023-04-01T11:29:47;2.15;;;2.05;;
10335;SDS011;5213;53.548;9.930;2023-04-01T11:32:52;3.67;;;3.38;;
10335;SDS011;5213;53.548;9.930;2023-04-01T11:37:46;2.08;;;1.60;;
10335;SDS011;5213;53.548;9.930;2023-04-01T11:40:23;2.10;;;2.00;;
10335;SDS011;5213;53.548;9.930;2023-04-01T11:42:55;2.08;;;1.63;;
10335;SDS011;5213;53.548;9.930;2023-04-01T11:45:36;2.10;;;1.90;;
10335;SDS011;5213;53.548;9.930;2023-04-01T11:53:30;1.42;;;1.33;;
10335;SDS011;5213;53.548;9.930;2023-04-01T12:01:23;1.90;;;1.80;;
10335;SDS011;5213;53.548;9.930;2023-04-01T12:03:56;2.10;;;2.00;;
10335;SDS011;5213;53.548;9.930;2023-04-01T12:06:35;2.85;;;2.17;;
10335;SDS011;5213;53.548;9.930;2023-04-01T12:11:41;3.13;;;2.40;;
10335;SDS011;5213;53.548;9.930;2023-04-01T12:19:29;3.05;;;2.50;;
10335;SDS011;5213;53.548;9.930;2023-04-01T12:24:37;3.22;;;3.03;;
10335;SDS011;5213;53.548;9.930;2023-04-01T12:45:33;4.22;;;3.28;;
10335;SDS011;5213;53.548;9.930;2023-04-01T12:53:18;3.90;;;3.50;;
10335;SDS011;5213;53.548;9.930;2023-04-01T12:55:49;3.33;;;3.03;;
10335;SDS011;5213;53.548;9.930;2023-04-01T13:06:11;4.60;;;3.97;;
10335;SDS011;5213;53.548;9.930;2023-04-01T13:16:33;5.05;;;4.07;;
10335;SDS011;5213;53.548;9.930;2023-04-01T13:19:15;3.58;;;3.28;;
10335;SDS011;5213;53.548;9.930;2023-04-01T13:29:18;3.95;;;2.90;;
10335;SDS011;5213;53.548;9.930;2023-04-01T13:37:27;4.45;;;3.28;;
10335;SDS011;5213;53.548;9.930;2023-04-01T13:42:49;3.67;;;3.25;;
10335;SDS011;5213;53.548;9.930;2023-04-01T13:55:49;3.90;;;3.42;;
10335;SDS011;5213;53.548;9.930;2023-04-01T14:01:15;3.10;;;2.80;;
10335;SDS011;5213;53.548;9.930;2023-04-01T14:03:47;2.70;;;2.50;;
10335;SDS011;5213;53.548;9.930;2023-04-01T14:06:19;3.80;;;2.85;;
10335;SDS011;5213;53.548;9.930;2023-04-01T14:12:22;4.10;;;3.35;;
10335;SDS011;5213;53.548;9.930;2023-04-01T14:18:03;3.45;;;3.08;;
10335;SDS011;5213;53.548;9.930;2023-04-01T14:22:57;5.60;;;3.35;;
10335;SDS011;5213;53.548;9.930;2023-04-01T14:43:58;4.30;;;3.38;;
10335;SDS011;5213;53.548;9.930;2023-04-01T14:51:52;4.95;;;3.65;;
10335;SDS011;5213;53.548;9.930;2023-04-01T14:54:19;4.13;;;3.47;;
10335;SDS011;5213;53.548;9.930;2023-04-01T14:57:33;4.40;;;3.30;;
10335;SDS011;5213;53.548;9.930;2023-04-01T14:59:34;4.88;;;3.05;;
10335;SDS011;5213;53.548;9.930;2023-04-01T15:07:21;7.95;;;5.25;;
10335;SDS011;5213;53.548;9.930;2023-04-01T15:28:06;9.43;;;7.30;;
10335;SDS011;5213;53.548;9.930;2023-04-01T15:30:38;12.50;;;8.30;;
10335;SDS011;5213;53.548;9.930;2023-04-01T15:33:16;9.60;;;6.80;;
10335;SDS011;5213;53.548;9.930;2023-04-01T15:41:16;7.95;;;4.65;;
10335;SDS011;5213;53.548;9.930;2023-04-01T15:43:46;5.90;;;4.60;;
10335;SDS011;5213;53.548;9.930;2023-04-01T15:51:48;6.15;;;4.65;;
10335;SDS011;5213;53.548;9.930;2023-04-01T15:57:15;7.97;;;4.88;;
10335;SDS011;5213;53.548;9.930;2023-04-01T16:23:02;5.70;;;5.00;;
10335;SDS011;5213;53.548;9.930;2023-04-01T16:30:46;9.35;;;5.35;;
10335;SDS011;5213;53.548;9.930;2023-04-01T16:33:15;7.40;;;5.55;;
10335;SDS011;5213;53.548;9.930;2023-04-01T16:35:47;6.53;;;5.70;;
10335;SDS011;5213;53.548;9.930;2023-04-01T16:43:30;5.78;;;4.28;;
10335;SDS011;5213;53.548;9.930;2023-04-01T16:48:45;6.93;;;4.07;;
10335;SDS011;5213;53.548;9.930;2023-04-01T16:51:16;6.43;;;4.82;;
10335;SDS011;5213;53.548;9.930;2023-04-01T16:53:43;4.45;;;3.75;;
10335;SDS011;5213;53.548;9.930;2023-04-01T17:03:44;7.13;;;5.15;;
10335;SDS011;5213;53.548;9.930;2023-04-01T17:11:27;8.38;;;5.63;;
10335;SDS011;5213;53.548;9.930;2023-04-01T17:13:59;9.10;;;6.40;;
10335;SDS011;5213;53.548;9.930;2023-04-01T17:29:59;8.80;;;5.20;;
10335;SDS011;5213;53.548;9.930;2023-04-01T17:37:29;7.05;;;5.03;;
10335;SDS011;5213;53.548;9.930;2023-04-01T17:45:01;6.13;;;3.55;;
10335;SDS011;5213;53.548;9.930;2023-04-01T17:50:22;5.13;;;4.00;;
10335;SDS011;5213;53.548;9.930;2023-04-01T17:53:11;4.75;;;3.53;;
10335;SDS011;5213;53.548;9.930;2023-04-01T17:56:03;5.13;;;4.30;;
10335;SDS011;5213;53.548;9.930;2023-04-01T18:03:45;6.97;;;4.22;;
10335;SDS011;5213;53.548;9.930;2023-04-01T18:06:26;4.18;;;3.60;;
10335;SDS011;5213;53.548;9.930;2023-04-01T18:14:08;5.50;;;3.83;;
10335;SDS011;5213;53.548;9.930;2023-04-01T18:21:53;5.10;;;4.40;;
10335;SDS011;5213;53.548;9.930;2023-04-01T18:24:23;4.68;;;3.67;;
10335;SDS011;5213;53.548;9.930;2023-04-01T18:27:04;6.78;;;3.83;;
10335;SDS011;5213;53.548;9.930;2023-04-01T18:37:16;6.30;;;3.92;;
10335;SDS011;5213;53.548;9.930;2023-04-01T18:39:48;4.05;;;3.65;;
10335;SDS011;5213;53.548;9.930;2023-04-01T18:45:09;7.53;;;4.03;;
10335;SDS011;5213;53.548;9.930;2023-04-01T18:47:38;7.22;;;3.92;;
10335;SDS011;5213;53.548;9.930;2023-04-01T18:50:27;7.00;;;4.00;;
10335;SDS011;5213;53.548;9.930;2023-04-01T18:52:59;3.75;;;3.45;;
10335;SDS011;5213;53.548;9.930;2023-04-01T18:58:20;5.00;;;4.35;;
10335;SDS011;5213;53.548;9.930;2023-04-01T19:00:49;5.60;;;4.03;;
10335;SDS011;5213;53.548;9.930;2023-04-01T19:03:23;8.05;;;4.32;;
10335;SDS011;5213;53.548;9.930;2023-04-01T19:05:51;5.75;;;3.92;;
10335;SDS011;5213;53.548;9.930;2023-04-01T19:08:34;3.75;;;3.30;;
10335;SDS011;5213;53.548;9.930;2023-04-01T19:15:57;6.72;;;3.88;;
10335;SDS011;5213;53.548;9.930;2023-04-01T19:26:14;4.90;;;3.20;;
10335;SDS011;5213;53.548;9.930;2023-04-01T19:38:52;6.88;;;4.20;;
10335;SDS011;5213;53.548;9.930;2023-04-01T19:59:38;5.22;;;3.58;;
10335;SDS011;5213;53.548;9.930;2023-04-01T20:04:42;4.05;;;3.58;;
10335;SDS011;5213;53.548;9.930;2023-04-01T20:07:23;3.33;;;3.03;;
10335;SDS011;5213;53.548;9.930;2023-04-01T20:09:58;5.07;;;2.88;;
10335;SDS011;5213;53.548;9.930;2023-04-01T20:20:57;3.92;;;2.95;;
10335;SDS011;5213;53.548;9.930;2023-04-01T20:23:29;3.80;;;3.00;;
10335;SDS011;5213;53.548;9.930;2023-04-01T20:26:02;5.13;;;3.53;;
10335;SDS011;5213;53.548;9.930;2023-04-01T20:28:32;5.57;;;3.90;;
10335;SDS011;5213;53.548;9.930;2023-04-01T20:36:10;5.93;;;4.15;;
10335;SDS011;5213;53.548;9.930;2023-04-01T20:41:26;8.77;;;5.97;;
10335;SDS011;5213;53.548;9.930;2023-04-01T20:44:03;11.70;;;6.07;;
10335;SDS011;5213;53.548;9.930;2023-04-01T20:46:34;5.65;;;3.42;;
10335;SDS011;5213;53.548;9.930;2023-04-01T20:51:32;8.25;;;4.40;;
10335;SDS011;5213;53.548;9.930;2023-04-01T21:09:09;6.28;;;2.72;;
10335;SDS011;5213;53.548;9.930;2023-04-01T21:22:27;3.85;;;2.40;;
10335;SDS011;5213;53.548;9.930;2023-04-01T21:33:07;5.97;;;3.20;;
10335;SDS011;5213;53.548;9.930;2023-04-01T21:38:34;3.47;;;2.35;;
10335;SDS011;5213;53.548;9.930;2023-04-01T21:57:29;5.38;;;2.83;;
10335;SDS011;5213;53.548;9.930;2023-04-01T22:07:29;4.82;;;2.30;;
10335;SDS011;5213;53.548;9.930;2023-04-01T22:09:52;3.42;;;2.55;;
10335;SDS011;5213;53.548;9.930;2023-04-01T22:27:21;3.17;;;1.70;;
10335;SDS011;5213;53.548;9.930;2023-04-01T22:32:28;2.45;;;2.08;;
10335;SDS011;5213;53.548;9.930;2023-04-01T22:35:08;2.95;;;1.88;;
10335;SDS011;5213;53.548;9.930;2023-04-01T22:40:34;2.95;;;1.88;;
10335;SDS011;5213;53.548;9.930;2023-04-01T22:43:06;2.72;;;2.08;;
10335;SDS011;5213;53.548;9.930;2023-04-01T22:53:17;2.58;;;1.35;;
10335;SDS011;5213;53.548;9.930;2023-04-01T22:55:45;2.65;;;1.65;;
10335;SDS011;5213;53.548;9.930;2023-04-01T22:58:14;3.42;;;1.88;;
10335;SDS011;5213;53.548;9.930;2023-04-01T23:03:28;2.28;;;1.85;;
10335;SDS011;5213;53.548;9.930;2023-04-01T23:05:55;3.35;;;1.73;;
10335;SDS011;5213;53.548;9.930;2023-04-01T23:11:07;3.75;;;1.38;;
10335;SDS011;5213;53.548;9.930;2023-04-01T23:13:39;2.03;;;1.77;;
10335;SDS011;5213;53.548;9.930;2023-04-01T23:16:06;3.38;;;1.73;;
10335;SDS011;5213;53.548;9.930;2023-04-01T23:18:35;2.80;;;1.70;;
10335;SDS011;5213;53.548;9.930;2023-04-01T23:28:49;1.65;;;1.50;;
10335;SDS011;5213;53.548;9.930;2023-04-01T23:31:35;2.05;;;1.30;;
10335;SDS011;5213;53.548;9.930;2023-04-01T23:34:20;2.97;;;1.77;;
10335;SDS011;5213;53.548;9.930;2023-04-01T23:36:51;3.28;;;1.55;;
10335;SDS011;5213;53.548;9.930;2023-04-01T23:39:38;2.22;;;1.50;;
10335;SDS011;5213;53.548;9.930;2023-04-01T23:42:06;2.25;;;1.20;;
10335;SDS011;5213;53.548;9.930;2023-04-01T23:44:33;2.75;;;1.98;;
10335;SDS011;5213;53.548;9.930;2023-04-01T23:47:00;5.40;;;1.70;;
10335;SDS011;5213;53.548;9.930;2023-04-01T23:49:33;3.08;;;1.42;;
10335;SDS011;5213;53.548;9.930;2023-04-01T23:55:21;3.92;;;1.73;;
10335;SDS011;5213;53.548;9.930;2023-04-01T23:57:28;3.95;;;1.63;;
